N7ZEF Weather Reports


Display with metric or nautical units.
time (UTC)temp
F
wind
direction
speed
MPH
gust
MPH
rain 1hr
in
rain 24hr
in
rain mn
in
humidity
%
barometer
mb
20260505195730 37 28 3.0 11.0 0.00 0.00 0.10 82 1013.3
20260505194730 37 69 4.0 11.0 0.00 0.00 0.10 83 1013.3
20260505193727 37 103 8.0 15.0 0.00 0.00 0.10 84 1013.3
20260505192726 37 31 2.0 9.0 0.00 0.00 0.10 87 1013.3
20260505191724 37 62 9.0 12.0 0.00 0.00 0.10 87 1013.5
20260505190723 37 53 5.0 12.0 0.00 0.00 0.10 88 1013.5
20260505185721 37 58 5.0 12.0 0.00 0.00 0.10 91 1013.5
20260505184720 37 21 4.0 8.0 0.03 0.00 0.10 93 1013.7
20260505183719 37 73 4.0 11.0 0.03 0.00 0.10 96 1013.7
20260505182717 36 77 8.0 16.0 0.03 0.00 0.10 96 1013.7
20260505181716 36 69 7.0 11.0 0.03 0.00 0.10 98 1013.6
20260505180715 36 79 4.0 7.0 0.03 0.00 0.10 99 1013.8
20260505175713 36 117 2.0 12.0 0.03 0.00 0.10 99 1013.8
20260505174712 36 115 7.0 14.0 0.01 0.00 0.10 99 1013.8
20260505173710 36 66 5.0 8.0 0.01 0.00 0.10 100 1013.8
20260505172709 35 75 3.0 7.0 0.01 0.00 0.10 100 1014.0
20260505171708 35 63 3.0 7.0 0.01 0.00 0.10 100 1014.1
20260505170706 34 30 0.0 5.0 0.01 0.00 0.09 99 1014.2
20260505165703 34 93 1.0 7.0 0.01 0.00 0.08 99 1014.2
20260505164701 35 83 3.0 5.0 0.00 0.00 0.07 97 1014.2
20260505163700 35 52 1.0 3.0 0.00 0.00 0.07 97 1014.2
20260505162659 36 110 2.0 7.0 0.00 0.00 0.06 96 1014.4
20260505161657 37 55 0.0 2.0 0.00 0.00 0.06 96 1014.2
20260505160656 36 76 2.0 6.0 0.00 0.00 0.06 96 1014.4
20260505152650 35 35 3.0 6.0 0.01 0.00 0.06 98 1014.4
20260505151649 35 58 3.0 7.0 0.01 0.00 0.06 99 1014.4
20260505150648 36 100 5.0 11.0 0.01 0.00 0.06 99 1014.2
20260505140638 34 76 3.0 5.0 0.02 0.00 0.05 100 1014.4
20260505124627 35 359 1.0 2.0 0.00 0.00 0.03 98 1013.6
20260505123626 35 79 0.0 3.0 0.00 0.00 0.03 98 1013.5
20260505122628 36 73 2.0 4.0 0.00 0.00 0.03 97 1013.3
20260505121623 36 10 0.0 3.0 0.00 0.00 0.03 97 1013.2
20260505120622 36 56 0.0 7.0 0.00 0.00 0.02 97 1013.2
20260505115620 36 115 2.0 7.0 0.00 0.00 0.02 96 1013.1
20260505114619 36 72 1.0 4.0 0.00 0.00 0.02 96 1013.0
20260505113617 36 97 1.0 7.0 0.00 0.00 0.02 96 1013.1
20260505112616 36 39 2.0 7.0 0.00 0.00 0.02 96 1013.0
20260505111615 37 229 2.0 7.0 0.00 0.00 0.02 97 1013.0
20260505110613 37 4 0.0 4.0 0.00 0.00 0.02 97 1012.8
20260505101606 37 38 1.0 4.0 0.00 0.00 0.02 92 1012.8
20260505100605 37 359 2.0 6.0 0.00 0.00 0.02 90 1013.0
20260505095604 37 32 1.0 7.0 0.00 0.00 0.02 90 1013.0
20260505094602 37 11 2.0 6.0 0.00 0.00 0.02 89 1012.8
20260505093601 37 20 2.0 7.0 0.00 0.00 0.02 90 1012.7
20260505092559 38 38 2.0 5.0 0.00 0.00 0.02 91 1012.6
20260505091558 38 107 1.0 9.0 0.00 0.00 0.02 91 1012.7
20260505090557 38 45 2.0 9.0 0.00 0.00 0.02 91 1012.4
20260505085555 38 10 1.0 8.0 0.00 0.00 0.02 92 1012.4
20260505084554 39 34 1.0 5.0 0.00 0.00 0.02 94 1012.4
20260505083552 39 7 2.0 7.0 0.00 0.00 0.02 93 1012.7
20260505082551 39 72 2.0 6.0 0.00 0.00 0.02 94 1012.8
20260505081550 39 66 3.0 6.0 0.00 0.00 0.02 95 1012.8
20260505080548 40 49 1.0 9.0 0.00 0.00 0.02 95 1012.8
20260505075547 40 25 1.0 7.0 0.00 0.00 0.02 95 1012.7
20260505074545 40 55 0.0 7.0 0.02 0.00 0.02 95 1012.7
20260505073544 40 134 3.0 6.0 0.02 0.00 0.02 96 1012.4
20260505072543 40 87 2.0 9.0 0.02 0.00 0.02 96 1012.4
20260505071541 41 38 2.0 5.0 0.02 0.00 0.02 96 1012.6
20260505070540 41 34 1.0 3.0 0.02 0.00 0.02 96 1012.4
20260505065538 41 38 1.0 3.0 0.02 0.00 0.02 96 1012.4
20260505064537 41 155 2.0 7.0 0.00 0.00 0.02 96 1012.3
20260505063536 41 31 3.0 8.0 0.00 0.00 0.02 94 1012.2
20260505062534 42 87 6.0 12.0 0.00 0.00 0.01 93 1012.1
20260505061533 43 17 2.0 9.0 0.00 0.00 0.00 90 1012.6
20260505060531 43 38 2.0 7.0 0.00 0.00 0.00 90 1012.3
20260505055530 43 98 0.0 4.0 0.00 0.00 0.00 90 1012.3
20260505054529 43 11 2.0 10.0 0.00 0.00 0.00 89 1012.3
20260505053527 43 23 3.0 6.0 0.00 0.00 0.00 87 1012.3
20260505052526 44 44 3.0 8.0 0.00 0.00 0.00 85 1012.3
20260505051525 44 69 5.0 13.0 0.00 0.00 0.00 81 1012.3
20260505050523 45 114 2.0 4.0 0.00 0.00 0.00 81 1012.3
20260505041516 46 66 3.0 6.0 0.00 0.00 0.00 76 1012.1
20260505040515 47 91 2.0 7.0 0.00 0.00 0.00 75 1011.7
20260505035513 47 86 1.0 6.0 0.00 0.00 0.00 78 1011.6
20260505034512 47 28 1.0 7.0 0.00 0.00 0.00 82 1011.3
20260505033510 47 142 3.0 7.0 0.00 0.00 0.00 81 1010.9
20260505032509 48 117 4.0 7.0 0.00 0.00 0.00 80 1010.4
20260505031508 48 122 3.0 5.0 0.00 0.00 0.00 77 1010.5
20260505030506 49 127 2.0 7.0 0.00 0.00 0.00 75 1010.4
20260505025500 49 163 2.0 10.0 0.00 0.00 0.00 72 1010.3
20260505024458 49 125 2.0 0.0 0.00 0.00 0.00 69 1009.9
20260505023457 49 203 0.0 0.0 0.00 0.00 0.00 66 1009.7
20260505022456 50 203 0.0 0.0 0.00 0.00 0.00 64 1009.5
20260505021454 51 203 1.0 2.0 0.00 0.00 0.00 64 1009.4
20260505020453 51 240 0.0 0.0 0.00 0.00 0.00 62 1009.5
20260505015451 51 238 0.0 3.0 0.00 0.00 0.00 63 1009.4
20260505014450 52 107 0.0 1.0 0.00 0.00 0.00 62 1009.5
20260505013449 52 156 0.0 5.0 0.00 0.00 0.00 60 1009.5
20260505012447 54 120 0.0 6.0 0.00 0.00 0.00 54 1009.3
20260505012321 54 167 2.0 11.0 0.00 0.00 0.00 50 1009.3
20260505011446 54 167 2.0 11.0 0.00 0.00 0.00 50 1009.3
20260505010445 56 238 2.0 13.0 0.00 0.00 0.00 53 1009.4
20260505005443 54 284 0.0 12.0 0.00 0.00 0.00 52 1009.3
20260505004442 57 262 0.0 6.0 0.00 0.00 0.00 45 1010.2
20260505004313 61 114 4.0 8.0 0.00 0.00 0.00 35 1008.6
20260505003440 58 21 1.0 11.0 0.00 0.00 0.00 37 1009.4
20260505002439 58 21 3.0 8.0 0.00 0.00 0.00 38 1009.0
20260505001438 59 23 4.0 8.0 0.00 0.00 0.00 37 1009.0
20260505000436 60 77 1.0 8.0 0.00 0.00 0.00 36 1008.9
20260504235435 60 187 2.0 11.0 0.00 0.00 0.00 36 1008.5
20260504234433 61 114 4.0 8.0 0.00 0.00 0.00 35 1008.6
20260504233432 60 107 5.0 8.0 0.00 0.00 0.00 35 1008.8
20260504232431 60 84 3.0 6.0 0.00 0.00 0.00 36 1008.5
20260504231429 59 117 2.0 8.0 0.00 0.00 0.00 37 1008.4
20260504230428 61 17 2.0 10.0 0.00 0.00 0.00 38 1008.4
20260504225951 61 94 3.0 9.0 0.00 0.00 0.00 31 1008.5
20260504225426 61 94 3.0 9.0 0.00 0.00 0.00 31 1008.5
20260504224425 63 98 9.0 9.0 0.00 0.00 0.00 29 1008.3
20260504223424 63 125 3.0 8.0 0.00 0.00 0.00 29 1008.4
20260504222422 64 113 4.0 9.0 0.00 0.00 0.00 27 1008.4
20260504221421 66 100 6.0 7.0 0.00 0.00 0.00 25 1008.5
20260504220419 67 134 1.0 7.0 0.00 0.00 0.00 25 1008.8
20260504215418 66 127 0.0 9.0 0.00 0.00 0.00 26 1008.6
20260504214417 65 160 3.0 6.0 0.00 0.00 0.00 28 1009.0
20260504213415 66 103 0.0 6.0 0.00 0.00 0.00 21 1009.3
20260504212414 66 25 2.0 6.0 0.00 0.00 0.00 22 1009.3
20260504211412 65 304 5.0 11.0 0.00 0.00 0.00 24 1009.5
20260504210411 65 323 2.0 15.0 0.00 0.00 0.00 24 1009.5
20260504205410 64 110 5.0 13.0 0.00 0.00 0.00 24 1009.7
20260504204408 63 15 7.0 13.0 0.00 0.00 0.00 27 1009.8
20260504203407 64 280 5.0 7.0 0.00 0.00 0.00 26 1010.2
20260504202406 66 312 1.0 9.0 0.00 0.00 0.00 20 1009.9
20260504201404 66 162 0.0 5.0 0.00 0.00 0.00 21 1009.9
20260504200403 66 302 0.0 7.0 0.00 0.00 0.00 20 1009.9